sensor_id;sensor_type;location;lat;lon;timestamp;pressure;altitude;pressure_sealevel;temperature;humidity
70982;BME280;58640;51.320;9.456;2023-03-16T00:02:07;99831.00;;;-0.80;83.13
70982;BME280;58640;51.320;9.456;2023-03-16T00:04:33;99827.91;;;-0.86;83.86
70982;BME280;58640;51.320;9.456;2023-03-16T00:07:03;99829.13;;;-0.92;84.08
70982;BME280;58640;51.320;9.456;2023-03-16T00:09:29;99819.63;;;-0.94;84.44
70982;BME280;58640;51.320;9.456;2023-03-16T00:11:59;99822.06;;;-0.91;84.39
70982;BME280;58640;51.320;9.456;2023-03-16T00:14:27;99829.00;;;-0.76;83.07
70982;BME280;58640;51.320;9.456;2023-03-16T00:16:53;99829.13;;;-0.78;82.98
70982;BME280;58640;51.320;9.456;2023-03-16T00:19:18;99829.13;;;-0.92;84.16
70982;BME280;58640;51.320;9.456;2023-03-16T00:21:43;99834.50;;;-0.93;83.61
70982;BME280;58640;51.320;9.456;2023-03-16T00:24:09;99821.78;;;-0.87;83.71
70982;BME280;58640;51.320;9.456;2023-03-16T00:26:36;99817.88;;;-0.81;83.16
70982;BME280;58640;51.320;9.456;2023-03-16T00:29:02;99811.97;;;-0.85;83.84
70982;BME280;58640;51.320;9.456;2023-03-16T00:31:27;99819.13;;;-0.87;83.61
70982;BME280;58640;51.320;9.456;2023-03-16T00:33:53;99825.63;;;-0.92;83.87
70982;BME280;58640;51.320;9.456;2023-03-16T00:36:18;99818.66;;;-0.93;83.94
70982;BME280;58640;51.320;9.456;2023-03-16T00:38:43;99824.59;;;-0.90;84.15
70982;BME280;58640;51.320;9.456;2023-03-16T00:41:10;99817.16;;;-0.83;83.41
70982;BME280;58640;51.320;9.456;2023-03-16T00:43:39;99823.09;;;-0.94;84.50
70982;BME280;58640;51.320;9.456;2023-03-16T00:46:15;99821.69;;;-0.99;84.20
70982;BME280;58640;51.320;9.456;2023-03-16T00:48:45;99820.06;;;-1.02;84.56
70982;BME280;58640;51.320;9.456;2023-03-16T00:51:14;99825.44;;;-1.03;85.03
70982;BME280;58640;51.320;9.456;2023-03-16T00:53:41;99823.75;;;-1.04;84.68
70982;BME280;58640;51.320;9.456;2023-03-16T00:56:07;99817.72;;;-1.06;85.00
70982;BME280;58640;51.320;9.456;2023-03-16T00:58:34;99823.28;;;-1.11;85.49
70982;BME280;58640;51.320;9.456;2023-03-16T01:01:05;99824.59;;;-1.18;85.49
70982;BME280;58640;51.320;9.456;2023-03-16T01:03:32;99823.00;;;-1.06;85.15
70982;BME280;58640;51.320;9.456;2023-03-16T01:06:01;99819.59;;;-1.08;85.55
70982;BME280;58640;51.320;9.456;2023-03-16T01:08:27;99817.25;;;-1.13;85.63
70982;BME280;58640;51.320;9.456;2023-03-16T01:10:53;99821.13;;;-1.18;86.41
70982;BME280;58640;51.320;9.456;2023-03-16T01:13:20;99815.75;;;-1.17;86.23
70982;BME280;58640;51.320;9.456;2023-03-16T01:15:45;99812.25;;;-1.17;86.01
70982;BME280;58640;51.320;9.456;2023-03-16T01:18:11;99818.09;;;-1.12;86.20
70982;BME280;58640;51.320;9.456;2023-03-16T01:20:38;99815.84;;;-1.18;86.61
70982;BME280;58640;51.320;9.456;2023-03-16T01:23:03;99803.66;;;-1.07;86.03
70982;BME280;58640;51.320;9.456;2023-03-16T01:25:28;99797.06;;;-1.14;86.49
70982;BME280;58640;51.320;9.456;2023-03-16T01:27:54;99794.34;;;-1.12;86.41
70982;BME280;58640;51.320;9.456;2023-03-16T01:30:19;99796.97;;;-1.12;85.90
70982;BME280;58640;51.320;9.456;2023-03-16T01:32:45;99791.50;;;-1.09;86.40
70982;BME280;58640;51.320;9.456;2023-03-16T01:35:10;99789.34;;;-1.17;86.64
70982;BME280;58640;51.320;9.456;2023-03-16T01:37:36;99782.00;;;-1.12;85.96
70982;BME280;58640;51.320;9.456;2023-03-16T01:40:01;99773.78;;;-1.07;85.55
70982;BME280;58640;51.320;9.456;2023-03-16T01:42:30;99767.66;;;-1.22;86.23
70982;BME280;58640;51.320;9.456;2023-03-16T01:44:58;99771.63;;;-1.29;86.36
70982;BME280;58640;51.320;9.456;2023-03-16T01:47:26;99775.88;;;-1.40;87.27
70982;BME280;58640;51.320;9.456;2023-03-16T01:49:55;99773.03;;;-1.37;87.16
70982;BME280;58640;51.320;9.456;2023-03-16T01:52:32;99775.09;;;-1.28;86.48
70982;BME280;58640;51.320;9.456;2023-03-16T01:55:04;99779.06;;;-1.35;86.29
70982;BME280;58640;51.320;9.456;2023-03-16T01:57:33;99777.16;;;-1.48;87.22
70982;BME280;58640;51.320;9.456;2023-03-16T02:00:16;99772.47;;;-1.57;87.55
70982;BME280;58640;51.320;9.456;2023-03-16T02:02:51;99784.13;;;-1.61;87.67
70982;BME280;58640;51.320;9.456;2023-03-16T02:05:22;99789.66;;;-1.65;88.33
70982;BME280;58640;51.320;9.456;2023-03-16T02:07:51;99791.53;;;-1.67;88.69
70982;BME280;58640;51.320;9.456;2023-03-16T02:10:22;99779.50;;;-1.71;88.84
70982;BME280;58640;51.320;9.456;2023-03-16T02:12:49;99785.78;;;-1.74;88.80
70982;BME280;58640;51.320;9.456;2023-03-16T02:15:14;99786.53;;;-1.72;89.09
70982;BME280;58640;51.320;9.456;2023-03-16T02:17:42;99793.06;;;-1.63;88.94
70982;BME280;58640;51.320;9.456;2023-03-16T02:22:46;99788.72;;;-1.64;88.14
70982;BME280;58640;51.320;9.456;2023-03-16T02:25:14;99782.97;;;-1.71;89.12
70982;BME280;58640;51.320;9.456;2023-03-16T02:30:27;99769.97;;;-1.74;89.31
70982;BME280;58640;51.320;9.456;2023-03-16T02:32:53;99768.75;;;-1.82;89.25
70982;BME280;58640;51.320;9.456;2023-03-16T02:35:18;99770.31;;;-1.80;89.91
70982;BME280;58640;51.320;9.456;2023-03-16T02:37:44;99756.38;;;-1.82;89.46
70982;BME280;58640;51.320;9.456;2023-03-16T02:40:22;99746.59;;;-1.80;89.38
70982;BME280;58640;51.320;9.456;2023-03-16T02:43:01;99744.72;;;-1.78;89.47
70982;BME280;58640;51.320;9.456;2023-03-16T02:45:30;99738.03;;;-1.83;89.75
70982;BME280;58640;51.320;9.456;2023-03-16T02:48:01;99736.63;;;-1.89;90.08
70982;BME280;58640;51.320;9.456;2023-03-16T02:50:27;99729.94;;;-1.80;89.48
70982;BME280;58640;51.320;9.456;2023-03-16T02:52:53;99736.44;;;-1.72;88.36
70982;BME280;58640;51.320;9.456;2023-03-16T02:55:18;99729.94;;;-1.80;88.87
70982;BME280;58640;51.320;9.456;2023-03-16T02:57:46;99730.88;;;-1.81;89.17
70982;BME280;58640;51.320;9.456;2023-03-16T03:00:12;99729.78;;;-1.63;88.26
70982;BME280;58640;51.320;9.456;2023-03-16T03:02:42;99714.75;;;-1.91;89.61
70982;BME280;58640;51.320;9.456;2023-03-16T03:05:07;99721.47;;;-1.85;89.19
70982;BME280;58640;51.320;9.456;2023-03-16T03:07:32;99724.53;;;-1.93;89.36
70982;BME280;58640;51.320;9.456;2023-03-16T03:09:58;99728.13;;;-1.94;89.37
70982;BME280;58640;51.320;9.456;2023-03-16T03:12:23;99716.06;;;-1.98;89.72
70982;BME280;58640;51.320;9.456;2023-03-16T03:14:49;99714.47;;;-1.86;89.43
70982;BME280;58640;51.320;9.456;2023-03-16T03:17:14;99718.56;;;-2.10;90.46
70982;BME280;58640;51.320;9.456;2023-03-16T03:19:39;99723.00;;;-2.11;90.94
70982;BME280;58640;51.320;9.456;2023-03-16T03:22:05;99727.81;;;-2.03;90.24
70982;BME280;58640;51.320;9.456;2023-03-16T03:24:31;99735.44;;;-1.99;89.81
70982;BME280;58640;51.320;9.456;2023-03-16T03:26:57;99734.09;;;-2.06;90.05
70982;BME280;58640;51.320;9.456;2023-03-16T03:29:25;99731.75;;;-2.10;90.79
70982;BME280;58640;51.320;9.456;2023-03-16T03:31:59;99726.56;;;-2.12;90.54
70982;BME280;58640;51.320;9.456;2023-03-16T03:34:25;99721.47;;;-2.15;90.98
70982;BME280;58640;51.320;9.456;2023-03-16T03:36:50;99721.38;;;-2.13;91.41
70982;BME280;58640;51.320;9.456;2023-03-16T03:39:17;99720.72;;;-2.17;91.44
70982;BME280;58640;51.320;9.456;2023-03-16T03:41:43;99720.72;;;-2.17;92.14
70982;BME280;58640;51.320;9.456;2023-03-16T03:44:08;99725.88;;;-2.15;91.57
70982;BME280;58640;51.320;9.456;2023-03-16T03:46:33;99726.94;;;-2.18;92.18
70982;BME280;58640;51.320;9.456;2023-03-16T03:48:59;99727.69;;;-2.16;91.72
70982;BME280;58640;51.320;9.456;2023-03-16T03:51:28;99725.66;;;-2.11;91.92
70982;BME280;58640;51.320;9.456;2023-03-16T03:53:53;99714.56;;;-2.02;91.47
70982;BME280;58640;51.320;9.456;2023-03-16T03:56:18;99727.53;;;-1.99;91.65
70982;BME280;58640;51.320;9.456;2023-03-16T03:58:44;99733.69;;;-1.98;91.47
70982;BME280;58640;51.320;9.456;2023-03-16T04:01:09;99731.88;;;-1.98;91.75
70982;BME280;58640;51.320;9.456;2023-03-16T04:03:35;99725.41;;;-1.92;91.87
70982;BME280;58640;51.320;9.456;2023-03-16T04:06:00;99717.22;;;-1.88;91.18
70982;BME280;58640;51.320;9.456;2023-03-16T04:08:25;99731.63;;;-1.93;91.74
70982;BME280;58640;51.320;9.456;2023-03-16T04:10:51;99718.59;;;-1.96;92.01
70982;BME280;58640;51.320;9.456;2023-03-16T04:13:16;99720.13;;;-1.92;92.28
70982;BME280;58640;51.320;9.456;2023-03-16T04:15:41;99720.53;;;-1.84;91.99
70982;BME280;58640;51.320;9.456;2023-03-16T04:18:07;99717.50;;;-1.78;91.80
70982;BME280;58640;51.320;9.456;2023-03-16T04:20:32;99722.88;;;-1.80;91.32
70982;BME280;58640;51.320;9.456;2023-03-16T04:22:57;99718.47;;;-1.65;90.36
70982;BME280;58640;51.320;9.456;2023-03-16T04:25:24;99705.94;;;-1.76;90.99
70982;BME280;58640;51.320;9.456;2023-03-16T04:27:51;99712.44;;;-1.81;91.50
70982;BME280;58640;51.320;9.456;2023-03-16T04:30:17;99704.69;;;-1.84;91.54
70982;BME280;58640;51.320;9.456;2023-03-16T04:32:42;99705.94;;;-1.76;91.14
70982;BME280;58640;51.320;9.456;2023-03-16T04:35:08;99711.66;;;-1.69;90.88
70982;BME280;58640;51.320;9.456;2023-03-16T04:37:33;99701.13;;;-1.83;90.92
70982;BME280;58640;51.320;9.456;2023-03-16T04:39:59;99708.09;;;-1.82;90.90
70982;BME280;58640;51.320;9.456;2023-03-16T04:42:24;99711.75;;;-1.85;91.51
70982;BME280;58640;51.320;9.456;2023-03-16T04:44:50;99702.25;;;-1.87;91.39
70982;BME280;58640;51.320;9.456;2023-03-16T04:47:16;99704.59;;;-1.97;92.23
70982;BME280;58640;51.320;9.456;2023-03-16T04:49:42;99714.56;;;-2.02;92.80
70982;BME280;58640;51.320;9.456;2023-03-16T04:52:08;99706.56;;;-1.86;92.47
70982;BME280;58640;51.320;9.456;2023-03-16T04:54:34;99711.75;;;-1.85;92.16
70982;BME280;58640;51.320;9.456;2023-03-16T04:56:59;99708.00;;;-1.95;92.22
70982;BME280;58640;51.320;9.456;2023-03-16T04:59:26;99714.47;;;-2.00;92.90
70982;BME280;58640;51.320;9.456;2023-03-16T05:01:52;99714.66;;;-2.03;93.26
70982;BME280;58640;51.320;9.456;2023-03-16T05:04:17;99706.56;;;-1.86;91.93
70982;BME280;58640;51.320;9.456;2023-03-16T05:06:43;99707.72;;;-1.90;92.65
70982;BME280;58640;51.320;9.456;2023-03-16T05:09:09;99709.88;;;-1.97;92.57
70982;BME280;58640;51.320;9.456;2023-03-16T05:11:34;99703.06;;;-2.01;93.18
70982;BME280;58640;51.320;9.456;2023-03-16T05:14:00;99697.78;;;-2.01;92.94
70982;BME280;58640;51.320;9.456;2023-03-16T05:16:27;99698.75;;;-2.02;93.17
70982;BME280;58640;51.320;9.456;2023-03-16T05:18:52;99710.38;;;-2.06;93.68
70982;BME280;58640;51.320;9.456;2023-03-16T05:21:17;99716.34;;;-2.02;93.12
70982;BME280;58640;51.320;9.456;2023-03-16T05:23:43;99706.84;;;-2.05;93.61
70982;BME280;58640;51.320;9.456;2023-03-16T05:26:08;99708.03;;;-2.10;93.40
70982;BME280;58640;51.320;9.456;2023-03-16T05:28:33;99718.38;;;-2.07;93.70
70982;BME280;58640;51.320;9.456;2023-03-16T05:30:59;99714.34;;;-2.13;94.06
70982;BME280;58640;51.320;9.456;2023-03-16T05:33:27;99715.19;;;-2.12;94.04
70982;BME280;58640;51.320;9.456;2023-03-16T05:35:52;99708.31;;;-2.15;94.55
70982;BME280;58640;51.320;9.456;2023-03-16T05:38:18;99721.78;;;-2.05;93.67
70982;BME280;58640;51.320;9.456;2023-03-16T05:40:43;99721.03;;;-2.07;93.83
70982;BME280;58640;51.320;9.456;2023-03-16T05:43:08;99713.31;;;-2.10;94.13
70982;BME280;58640;51.320;9.456;2023-03-16T05:45:34;99720.00;;;-2.05;93.76
70982;BME280;58640;51.320;9.456;2023-03-16T05:47:59;99712.59;;;-1.98;93.90
70982;BME280;58640;51.320;9.456;2023-03-16T05:50:25;99719.09;;;-1.90;93.94
70982;BME280;58640;51.320;9.456;2023-03-16T05:52:50;99722.78;;;-1.78;93.11
70982;BME280;58640;51.320;9.456;2023-03-16T05:55:16;99722.44;;;-1.58;92.61
70982;BME280;58640;51.320;9.456;2023-03-16T05:57:42;99721.78;;;-1.48;92.17
70982;BME280;58640;51.320;9.456;2023-03-16T06:00:10;99710.84;;;-1.27;91.34
70982;BME280;58640;51.320;9.456;2023-03-16T06:02:44;99708.00;;;-1.10;89.89
70982;BME280;58640;51.320;9.456;2023-03-16T06:05:13;99714.22;;;-0.97;89.30
70982;BME280;58640;51.320;9.456;2023-03-16T06:07:39;99717.78;;;-0.98;89.18
70982;BME280;58640;51.320;9.456;2023-03-16T06:10:06;99713.06;;;-0.67;88.10
70982;BME280;58640;51.320;9.456;2023-03-16T06:12:31;99699.75;;;-0.51;87.26
70982;BME280;58640;51.320;9.456;2023-03-16T06:14:58;99702.78;;;-0.18;85.69
70982;BME280;58640;51.320;9.456;2023-03-16T06:17:24;99705.66;;;-0.21;85.47
70982;BME280;58640;51.320;9.456;2023-03-16T06:19:49;99703.25;;;0.01;84.74
70982;BME280;58640;51.320;9.456;2023-03-16T06:22:15;99705.25;;;-0.03;84.23
70982;BME280;58640;51.320;9.456;2023-03-16T06:24:40;99708.44;;;0.28;82.95
70982;BME280;58640;51.320;9.456;2023-03-16T06:27:05;99709.09;;;0.31;82.74
70982;BME280;58640;51.320;9.456;2023-03-16T06:29:31;99711.41;;;0.48;82.11
70982;BME280;58640;51.320;9.456;2023-03-16T06:31:56;99706.44;;;0.56;82.52
70982;BME280;58640;51.320;9.456;2023-03-16T06:34:22;99709.47;;;0.88;80.36
70982;BME280;58640;51.320;9.456;2023-03-16T06:36:47;99711.91;;;1.03;80.16
70982;BME280;58640;51.320;9.456;2023-03-16T06:39:12;99702.25;;;1.38;79.74
70982;BME280;58640;51.320;9.456;2023-03-16T06:41:38;99701.09;;;1.30;78.97
70982;BME280;58640;51.320;9.456;2023-03-16T06:44:04;99696.66;;;1.30;78.82
70982;BME280;58640;51.320;9.456;2023-03-16T06:46:30;99704.03;;;1.62;77.66
70982;BME280;58640;51.320;9.456;2023-03-16T06:48:57;99702.75;;;1.67;77.18
70982;BME280;58640;51.320;9.456;2023-03-16T06:51:22;99695.63;;;1.68;76.56
70982;BME280;58640;51.320;9.456;2023-03-16T06:53:48;99688.47;;;1.57;76.71
70982;BME280;58640;51.320;9.456;2023-03-16T06:56:13;99693.91;;;1.56;76.84
70982;BME280;58640;51.320;9.456;2023-03-16T06:58:38;99698.00;;;1.83;75.77
70982;BME280;58640;51.320;9.456;2023-03-16T07:01:04;99701.59;;;1.82;74.46
70982;BME280;58640;51.320;9.456;2023-03-16T07:03:30;99696.44;;;1.92;75.02
70982;BME280;58640;51.320;9.456;2023-03-16T07:05:55;99694.31;;;1.97;74.53
70982;BME280;58640;51.320;9.456;2023-03-16T07:08:21;99700.78;;;1.82;74.38
70982;BME280;58640;51.320;9.456;2023-03-16T07:10:46;99697.53;;;1.89;74.06
70982;BME280;58640;51.320;9.456;2023-03-16T07:13:11;99701.78;;;2.03;74.07
70982;BME280;58640;51.320;9.456;2023-03-16T07:15:38;99707.09;;;2.03;73.80
70982;BME280;58640;51.320;9.456;2023-03-16T07:18:03;99711.25;;;2.18;72.78
70982;BME280;58640;51.320;9.456;2023-03-16T07:20:28;99710.69;;;2.36;72.19
70982;BME280;58640;51.320;9.456;2023-03-16T07:22:56;99721.94;;;2.51;72.21
70982;BME280;58640;51.320;9.456;2023-03-16T07:25:21;99712.69;;;2.67;71.09
70982;BME280;58640;51.320;9.456;2023-03-16T07:27:46;99703.34;;;2.51;72.41
70982;BME280;58640;51.320;9.456;2023-03-16T07:30:12;99711.94;;;2.98;71.14
70982;BME280;58640;51.320;9.456;2023-03-16T07:32:39;99697.94;;;3.19;69.59
70982;BME280;58640;51.320;9.456;2023-03-16T07:35:06;99704.53;;;3.35;68.15
70982;BME280;58640;51.320;9.456;2023-03-16T07:37:32;99712.88;;;3.20;68.80
70982;BME280;58640;51.320;9.456;2023-03-16T07:39:59;99710.03;;;3.54;67.75
70982;BME280;58640;51.320;9.456;2023-03-16T07:42:24;99709.47;;;3.82;66.35
70982;BME280;58640;51.320;9.456;2023-03-16T07:44:50;99714.97;;;3.70;66.42
70982;BME280;58640;51.320;9.456;2023-03-16T07:47:16;99709.06;;;3.66;65.78
70982;BME280;58640;51.320;9.456;2023-03-16T07:49:41;99719.50;;;3.47;66.82
70982;BME280;58640;51.320;9.456;2023-03-16T07:52:08;99706.47;;;3.44;66.95
70982;BME280;58640;51.320;9.456;2023-03-16T07:54:34;99709.53;;;3.71;65.99
70982;BME280;58640;51.320;9.456;2023-03-16T07:56:59;99709.81;;;3.89;66.18
70982;BME280;58640;51.320;9.456;2023-03-16T07:59:25;99711.41;;;3.49;66.98
70982;BME280;58640;51.320;9.456;2023-03-16T08:01:50;99713.84;;;4.04;66.24
70982;BME280;58640;51.320;9.456;2023-03-16T08:04:16;99720.31;;;4.42;64.15
70982;BME280;58640;51.320;9.456;2023-03-16T08:06:41;99717.03;;;4.18;64.90
70982;BME280;58640;51.320;9.456;2023-03-16T08:09:07;99711.00;;;4.78;63.18
70982;BME280;58640;51.320;9.456;2023-03-16T08:11:32;99699.31;;;5.09;62.50
70982;BME280;58640;51.320;9.456;2023-03-16T08:13:57;99700.22;;;5.19;61.82
70982;BME280;58640;51.320;9.456;2023-03-16T08:16:23;99707.88;;;5.62;59.54
70982;BME280;58640;51.320;9.456;2023-03-16T08:18:49;99708.06;;;5.79;58.08
70982;BME280;58640;51.320;9.456;2023-03-16T08:21:16;99710.72;;;5.79;59.82
70982;BME280;58640;51.320;9.456;2023-03-16T08:23:42;99710.84;;;5.68;59.48
70982;BME280;58640;51.320;9.456;2023-03-16T08:26:14;99705.56;;;6.16;58.81
70982;BME280;58640;51.320;9.456;2023-03-16T08:28:41;99710.63;;;6.10;58.98
70982;BME280;58640;51.320;9.456;2023-03-16T08:31:07;99708.75;;;6.48;56.66
70982;BME280;58640;51.320;9.456;2023-03-16T08:33:33;99704.31;;;6.30;57.28
70982;BME280;58640;51.320;9.456;2023-03-16T08:36:00;99706.34;;;6.55;55.85
70982;BME280;58640;51.320;9.456;2023-03-16T08:38:26;99711.50;;;6.75;55.65
70982;BME280;58640;51.320;9.456;2023-03-16T08:40:51;99703.19;;;6.78;54.41
70982;BME280;58640;51.320;9.456;2023-03-16T08:43:17;99709.63;;;6.95;55.78
70982;BME280;58640;51.320;9.456;2023-03-16T08:45:46;99701.19;;;6.90;53.42
70982;BME280;58640;51.320;9.456;2023-03-16T08:48:11;99704.25;;;6.58;54.65
70982;BME280;58640;51.320;9.456;2023-03-16T08:50:41;99701.63;;;6.85;54.16
70982;BME280;58640;51.320;9.456;2023-03-16T08:53:08;99702.88;;;6.91;53.25
70982;BME280;58640;51.320;9.456;2023-03-16T08:55:34;99709.25;;;6.80;54.85
70982;BME280;58640;51.320;9.456;2023-03-16T08:58:00;99699.63;;;6.97;52.80
70982;BME280;58640;51.320;9.456;2023-03-16T09:00:25;99697.44;;;7.19;53.19
70982;BME280;58640;51.320;9.456;2023-03-16T09:02:52;99694.75;;;7.47;52.75
70982;BME280;58640;51.320;9.456;2023-03-16T09:05:19;99707.41;;;7.89;52.80
70982;BME280;58640;51.320;9.456;2023-03-16T09:07:44;99702.97;;;8.50;49.75
70982;BME280;58640;51.320;9.456;2023-03-16T09:10:11;99708.78;;;8.11;49.36
70982;BME280;58640;51.320;9.456;2023-03-16T09:12:41;99687.41;;;8.54;49.78
70982;BME280;58640;51.320;9.456;2023-03-16T09:15:08;99691.41;;;8.75;48.61
70982;BME280;58640;51.320;9.456;2023-03-16T09:17:35;99696.72;;;8.42;48.61
70982;BME280;58640;51.320;9.456;2023-03-16T09:20:01;99690.28;;;8.35;47.65
70982;BME280;58640;51.320;9.456;2023-03-16T09:22:26;99689.88;;;8.47;47.17
70982;BME280;58640;51.320;9.456;2023-03-16T09:24:52;99685.72;;;8.78;47.39
70982;BME280;58640;51.320;9.456;2023-03-16T09:27:18;99689.09;;;9.06;46.30
70982;BME280;58640;51.320;9.456;2023-03-16T09:29:45;99683.59;;;8.82;47.10
70982;BME280;58640;51.320;9.456;2023-03-16T09:32:11;99675.06;;;8.61;47.31
70982;BME280;58640;51.320;9.456;2023-03-16T09:34:37;99681.09;;;8.37;46.79
70982;BME280;58640;51.320;9.456;2023-03-16T09:37:03;99678.59;;;8.61;47.05
70982;BME280;58640;51.320;9.456;2023-03-16T09:39:28;99670.88;;;8.92;47.32
70982;BME280;58640;51.320;9.456;2023-03-16T09:44:53;99669.41;;;8.98;45.62
70982;BME280;58640;51.320;9.456;2023-03-16T09:47:25;99665.75;;;9.07;45.37
70982;BME280;58640;51.320;9.456;2023-03-16T09:49:52;99668.03;;;9.27;45.16
70982;BME280;58640;51.320;9.456;2023-03-16T09:58:04;99673.06;;;9.22;44.09
70982;BME280;58640;51.320;9.456;2023-03-16T10:07:22;99681.16;;;9.38;44.18
70982;BME280;58640;51.320;9.456;2023-03-16T10:09:58;99673.72;;;9.24;44.09
70982;BME280;58640;51.320;9.456;2023-03-16T10:12:29;99678.34;;;9.40;43.79
70982;BME280;58640;51.320;9.456;2023-03-16T10:15:05;99667.88;;;9.37;42.41
70982;BME280;58640;51.320;9.456;2023-03-16T10:17:47;99649.34;;;9.10;43.05
70982;BME280;58640;51.320;9.456;2023-03-16T10:20:21;99666.00;;;9.21;42.52
70982;BME280;58640;51.320;9.456;2023-03-16T10:22:49;99650.63;;;8.98;43.20
70982;BME280;58640;51.320;9.456;2023-03-16T10:25:38;99654.69;;;9.59;41.60
70982;BME280;58640;51.320;9.456;2023-03-16T10:28:12;99653.25;;;9.23;43.33
70982;BME280;58640;51.320;9.456;2023-03-16T10:30:39;99649.41;;;9.26;42.00
70982;BME280;58640;51.320;9.456;2023-03-16T10:33:24;99650.69;;;9.55;41.63
70982;BME280;58640;51.320;9.456;2023-03-16T10:43:45;99637.44;;;9.12;42.57
70982;BME280;58640;51.320;9.456;2023-03-16T10:46:11;99635.78;;;9.19;41.54
70982;BME280;58640;51.320;9.456;2023-03-16T10:48:37;99641.88;;;9.29;42.64
70982;BME280;58640;51.320;9.456;2023-03-16T10:51:07;99638.69;;;9.34;42.43
70982;BME280;58640;51.320;9.456;2023-03-16T10:53:39;99628.97;;;9.33;43.38
70982;BME280;58640;51.320;9.456;2023-03-16T10:56:18;99632.25;;;9.11;42.91
70982;BME280;58640;51.320;9.456;2023-03-16T10:58:44;99624.13;;;9.36;42.84
70982;BME280;58640;51.320;9.456;2023-03-16T11:01:23;99629.31;;;9.38;39.31
70982;BME280;58640;51.320;9.456;2023-03-16T11:03:51;99627.88;;;9.75;40.72
70982;BME280;58640;51.320;9.456;2023-03-16T11:06:22;99635.09;;;9.67;39.21
70982;BME280;58640;51.320;9.456;2023-03-16T11:08:50;99624.34;;;9.83;39.62
70982;BME280;58640;51.320;9.456;2023-03-16T11:11:22;99617.47;;;9.72;39.07
70982;BME280;58640;51.320;9.456;2023-03-16T11:13:55;99622.31;;;9.69;38.78
70982;BME280;58640;51.320;9.456;2023-03-16T11:18:57;99633.72;;;9.55;39.17
70982;BME280;58640;51.320;9.456;2023-03-16T11:30:41;99608.47;;;8.82;39.89
70982;BME280;58640;51.320;9.456;2023-03-16T11:33:10;99606.97;;;8.87;39.54
70982;BME280;58640;51.320;9.456;2023-03-16T11:35:49;99586.19;;;8.81;37.75
70982;BME280;58640;51.320;9.456;2023-03-16T11:38:33;99591.53;;;8.81;39.53
70982;BME280;58640;51.320;9.456;2023-03-16T11:41:07;99584.03;;;8.85;39.71
70982;BME280;58640;51.320;9.456;2023-03-16T11:43:47;99573.91;;;8.71;40.37
70982;BME280;58640;51.320;9.456;2023-03-16T11:46:22;99573.59;;;8.74;39.74
70982;BME280;58640;51.320;9.456;2023-03-16T11:51:47;99573.25;;;8.77;40.66
70982;BME280;58640;51.320;9.456;2023-03-16T11:56:56;99575.22;;;8.67;40.34
70982;BME280;58640;51.320;9.456;2023-03-16T12:02:19;99586.44;;;8.37;42.74
70982;BME280;58640;51.320;9.456;2023-03-16T12:13:13;99559.31;;;9.23;40.82
70982;BME280;58640;51.320;9.456;2023-03-16T12:15:51;99563.53;;;9.34;39.48
70982;BME280;58640;51.320;9.456;2023-03-16T12:18:25;99561.91;;;9.65;39.91
70982;BME280;58640;51.320;9.456;2023-03-16T12:20:59;99539.25;;;9.75;37.85
70982;BME280;58640;51.320;9.456;2023-03-16T12:23:41;99544.44;;;10.01;39.26
70982;BME280;58640;51.320;9.456;2023-03-16T12:26:07;99532.19;;;9.82;37.65
70982;BME280;58640;51.320;9.456;2023-03-16T12:28:33;99518.25;;;9.95;39.27
70982;BME280;58640;51.320;9.456;2023-03-16T12:31:19;99511.06;;;9.63;38.14
70982;BME280;58640;51.320;9.456;2023-03-16T12:34:04;99518.41;;;10.17;38.13
70982;BME280;58640;51.320;9.456;2023-03-16T12:36:59;99514.88;;;10.01;39.08
70982;BME280;58640;51.320;9.456;2023-03-16T12:39:42;99504.63;;;9.96;36.45
70982;BME280;58640;51.320;9.456;2023-03-16T12:42:39;99498.78;;;9.69;36.42
70982;BME280;58640;51.320;9.456;2023-03-16T12:50:22;99496.75;;;10.03;35.14
70982;BME280;58640;51.320;9.456;2023-03-16T12:52:51;99481.16;;;9.82;36.59
70982;BME280;58640;51.320;9.456;2023-03-16T12:58:01;99482.16;;;9.81;36.40
70982;BME280;58640;51.320;9.456;2023-03-16T13:00:34;99478.63;;;9.89;35.90
70982;BME280;58640;51.320;9.456;2023-03-16T13:03:04;99460.34;;;9.92;34.75
70982;BME280;58640;51.320;9.456;2023-03-16T13:05:34;99462.16;;;10.16;35.11
70982;BME280;58640;51.320;9.456;2023-03-16T13:08:12;99464.69;;;10.09;34.34
70982;BME280;58640;51.320;9.456;2023-03-16T13:10:39;99461.41;;;10.30;34.32
70982;BME280;58640;51.320;9.456;2023-03-16T13:13:14;99451.22;;;10.17;33.01
70982;BME280;58640;51.320;9.456;2023-03-16T13:15:41;99462.00;;;10.56;32.72
70982;BME280;58640;51.320;9.456;2023-03-16T13:23:27;99467.66;;;10.61;31.73
70982;BME280;58640;51.320;9.456;2023-03-16T13:26:03;99452.03;;;10.18;33.48
70982;BME280;58640;51.320;9.456;2023-03-16T13:28:32;99445.50;;;10.04;32.38
70982;BME280;58640;51.320;9.456;2023-03-16T13:31:00;99458.09;;;10.04;33.93
70982;BME280;58640;51.320;9.456;2023-03-16T13:33:27;99447.59;;;9.62;34.57
70982;BME280;58640;51.320;9.456;2023-03-16T13:35:55;99445.75;;;9.39;34.50
70982;BME280;58640;51.320;9.456;2023-03-16T13:38:23;99436.72;;;9.32;34.21
70982;BME280;58640;51.320;9.456;2023-03-16T13:40:53;99429.47;;;9.16;35.38
70982;BME280;58640;51.320;9.456;2023-03-16T13:43:30;99424.13;;;9.16;34.82
70982;BME280;58640;51.320;9.456;2023-03-16T13:46:12;99422.44;;;9.39;35.24
70982;BME280;58640;51.320;9.456;2023-03-16T13:48:37;99423.94;;;9.50;34.92
70982;BME280;58640;51.320;9.456;2023-03-16T13:51:12;99421.09;;;9.43;34.09
70982;BME280;58640;51.320;9.456;2023-03-16T13:53:40;99418.75;;;9.56;33.92
70982;BME280;58640;51.320;9.456;2023-03-16T13:56:06;99416.72;;;9.58;34.20
70982;BME280;58640;51.320;9.456;2023-03-16T13:58:37;99415.09;;;9.33;34.96
70982;BME280;58640;51.320;9.456;2023-03-16T14:01:13;99412.88;;;9.53;34.60
70982;BME280;58640;51.320;9.456;2023-03-16T14:03:42;99418.06;;;9.54;34.94
70982;BME280;58640;51.320;9.456;2023-03-16T14:06:22;99405.47;;;9.71;35.49
70982;BME280;58640;51.320;9.456;2023-03-16T14:08:50;99402.44;;;9.74;35.29
70982;BME280;58640;51.320;9.456;2023-03-16T14:11:17;99385.56;;;9.96;35.63
70982;BME280;58640;51.320;9.456;2023-03-16T14:13:50;99396.16;;;9.97;35.06
70982;BME280;58640;51.320;9.456;2023-03-16T14:16:18;99386.28;;;9.90;35.02
70982;BME280;58640;51.320;9.456;2023-03-16T14:18:50;99380.00;;;9.51;35.30
70982;BME280;58640;51.320;9.456;2023-03-16T14:21:30;99399.28;;;9.46;36.21